Time;durP1;ratioP1;P1;durP2;ratioP2;P2;SDS_P1;SDS_P2;PMS_P1;PMS_P2;Temp;Humidity;BMP_temperature;BMP_pressure;BME280_temperature;BME280_humidity;BME280_pressure;Samples;Min_cycle;Max_cycle;Signal;HPM_P1;HPM_P2
2022/07/12 00:00:36;;;;;;;3.40;3.10;;;;;;;17.19;79.18;98755.59;5053650;28;20228;-69
2022/07/12 00:03:03;;;;;;;2.90;2.70;;;;;;;17.20;78.60;98751.84;5053336;28;20292;-69
2022/07/12 00:05:29;;;;;;;3.00;2.80;;;;;;;17.14;78.51;98755.53;5053324;28;20299;-69
2022/07/12 00:07:55;;;;;;;2.80;2.60;;;;;;;17.17;78.78;98759.59;5053533;28;20296;-70
2022/07/12 00:10:22;;;;;;;2.70;2.50;;;;;;;17.16;78.62;98757.97;5053143;28;20219;-69
2022/07/12 00:12:48;;;;;;;3.40;2.77;;;;;;;17.19;78.58;98768.25;5053516;28;20296;-70
2022/07/12 00:15:15;;;;;;;2.97;2.77;;;;;;;17.32;78.03;98762.53;5053523;28;20216;-70
2022/07/12 00:17:42;;;;;;;4.27;2.93;;;;;;;17.29;77.71;98763.03;5053516;28;20618;-69
2022/07/12 00:20:09;;;;;;;3.10;2.80;;;;;;;17.27;78.42;98759.75;5053430;28;20312;-70
2022/07/12 00:22:36;;;;;;;3.40;3.10;;;;;;;17.19;78.90;98760.97;5053111;28;20725;-69
2022/07/12 00:25:02;;;;;;;3.30;3.07;;;;;;;17.21;78.41;98766.94;5053449;28;20577;-69
2022/07/12 00:27:29;;;;;;;3.20;2.90;;;;;;;17.14;79.01;98758.22;5053391;28;20205;-69
2022/07/12 00:29:55;;;;;;;4.57;3.07;;;;;;;17.08;79.83;98761.88;5053252;28;20236;-69
2022/07/12 00:32:22;;;;;;;3.50;3.20;;;;;;;17.15;79.45;98759.03;5053322;28;20287;-70
2022/07/12 00:34:48;;;;;;;6.43;2.90;;;;;;;17.04;79.46;98760.72;5053034;28;20201;-69
2022/07/12 00:37:15;;;;;;;3.47;3.17;;;;;;;17.02;79.51;98760.19;5053616;28;20204;-70
2022/07/12 00:39:41;;;;;;;2.90;2.70;;;;;;;17.05;79.50;98759.66;5052922;28;20232;-70
2022/07/12 00:42:07;;;;;;;3.30;3.00;;;;;;;17.19;78.88;98765.56;5053224;28;20221;-69
2022/07/12 00:44:34;;;;;;;2.80;2.60;;;;;;;17.14;79.65;98765.47;5054655;28;20205;-69
2022/07/12 00:47:02;;;;;;;4.03;2.73;;;;;;;17.22;79.61;98757.81;5057274;28;20563;-69
2022/07/12 00:49:29;;;;;;;3.03;2.83;;;;;;;17.15;79.85;98754.47;5057225;28;20231;-70
2022/07/12 00:51:55;;;;;;;3.00;2.80;;;;;;;17.14;80.08;98765.47;5058042;28;20284;-69
2022/07/12 00:54:22;;;;;;;3.30;2.90;;;;;;;17.11;79.70;98761.41;5057026;28;20213;-70
2022/07/12 00:56:48;;;;;;;2.87;2.67;;;;;;;17.13;79.90;98759.28;5057137;28;20292;-70
2022/07/12 00:59:15;;;;;;;3.03;2.80;;;;;;;17.13;80.13;98758.44;5057040;28;20221;-70
2022/07/12 01:01:43;;;;;;;3.33;3.03;;;;;;;17.09;80.30;98755.44;5056639;28;20587;-69
2022/07/12 01:04:09;;;;;;;4.10;3.00;;;;;;;17.03;80.92;98753.72;5057563;28;20205;-69
2022/07/12 01:06:36;;;;;;;3.00;2.80;;;;;;;17.05;80.46;98756.19;5056921;28;20305;-69
2022/07/12 01:09:03;;;;;;;2.93;2.67;;;;;;;17.12;80.45;98757.66;5056831;28;20572;-69
2022/07/12 01:11:30;;;;;;;3.17;2.87;;;;;;;17.10;80.32;98754.38;5056460;28;20215;-70
2022/07/12 01:13:57;;;;;;;3.13;2.93;;;;;;;17.10;80.04;98764.31;5056525;28;20743;-69
2022/07/12 01:16:24;;;;;;;3.20;2.90;;;;;;;17.02;80.65;98756.66;5057319;28;20208;-69
2022/07/12 01:18:51;;;;;;;3.00;2.80;;;;;;;16.91;81.16;98755.66;5055515;28;20228;-69
2022/07/12 01:21:20;;;;;;;3.73;2.93;;;;;;;16.95;81.15;98758.69;5055146;28;20308;-69
2022/07/12 01:23:48;;;;;;;3.10;2.80;;;;;;;16.96;80.90;98761.13;5056682;28;20205;-69
2022/07/12 01:26:14;;;;;;;2.97;2.73;;;;;;;16.95;81.31;98756.00;5056612;28;20209;-69
2022/07/12 01:28:41;;;;;;;4.43;2.80;;;;;;;17.05;80.64;98762.34;5056356;28;20227;-69
2022/07/12 01:31:07;;;;;;;3.30;3.00;;;;;;;16.92;81.13;98762.66;5055319;28;20202;-69
2022/07/12 01:33:34;;;;;;;3.47;3.20;;;;;;;16.86;81.72;98766.31;5056486;28;20212;-69
2022/07/12 01:36:01;;;;;;;4.23;2.90;;;;;;;16.73;82.44;98757.75;5056446;28;20212;-70
2022/07/12 01:38:28;;;;;;;3.17;2.83;;;;;;;16.76;82.47;98758.09;5056009;28;20651;-70
2022/07/12 01:40:54;;;;;;;4.00;2.73;;;;;;;16.66;83.09;98762.47;5055990;28;20209;-69
2022/07/12 01:43:20;;;;;;;3.20;3.00;;;;;;;16.60;83.86;98758.84;5056240;28;20296;-70
2022/07/12 01:45:47;;;;;;;2.77;2.57;;;;;;;16.64;83.11;98749.25;5055909;28;20296;-69
2022/07/12 01:48:13;;;;;;;4.07;2.67;;;;;;;16.59;83.57;98759.09;5056090;28;20232;-69
2022/07/12 01:50:41;;;;;;;4.37;2.80;;;;;;;16.59;83.80;98757.22;5055819;28;20652;-70
2022/07/12 01:53:08;;;;;;;4.03;2.70;;;;;;;16.55;83.85;98756.06;5055795;28;20244;-70
2022/07/12 01:55:35;;;;;;;3.60;2.63;;;;;;;16.50;83.72;98749.78;5055214;28;20271;-69
2022/07/12 01:58:01;;;;;;;2.73;2.53;;;;;;;16.52;83.90;98745.81;5055926;28;20316;-69
2022/07/12 02:00:28;;;;;;;3.20;2.43;;;;;;;16.37;85.26;98750.84;5055909;28;20206;-70
2022/07/12 02:02:54;;;;;;;3.00;2.80;;;;;;;16.37;85.07;98748.19;5055882;28;20317;-69
2022/07/12 02:05:21;;;;;;;3.23;2.93;;;;;;;16.31;85.18;98743.78;5055533;28;20743;-69
2022/07/12 02:07:49;;;;;;;3.10;2.90;;;;;;;16.31;85.45;98743.78;5055555;28;20251;-69
2022/07/12 02:10:15;;;;;;;3.07;2.77;;;;;;;16.23;85.67;98744.16;5055456;28;20647;-69
2022/07/12 02:12:42;;;;;;;2.87;2.67;;;;;;;16.17;86.05;98742.41;5055461;28;20208;-70
2022/07/12 02:15:09;;;;;;;2.90;2.70;;;;;;;16.05;86.65;98746.19;5055671;28;20288;-69
2022/07/12 02:17:36;;;;;;;3.20;2.90;;;;;;;16.04;87.01;98748.06;5055672;28;20296;-69
2022/07/12 02:20:02;;;;;;;3.17;2.97;;;;;;;16.04;87.11;98744.53;5055300;28;20315;-70
2022/07/12 02:22:29;;;;;;;4.33;3.10;;;;;;;16.11;86.34;98748.72;5055472;28;20231;-69
2022/07/12 02:24:56;;;;;;;3.43;2.80;;;;;;;16.19;85.01;98750.25;5055433;28;20228;-69
2022/07/12 02:27:23;;;;;;;3.30;3.10;;;;;;;16.22;84.63;98745.19;5055480;28;20288;-69
2022/07/12 02:29:49;;;;;;;3.20;3.00;;;;;;;16.24;84.79;98743.09;5055322;28;20332;-69
2022/07/12 02:32:16;;;;;;;3.67;3.40;;;;;;;16.22;84.42;98750.56;5054976;28;20204;-70
2022/07/12 02:34:42;;;;;;;3.33;3.10;;;;;;;16.34;84.15;98747.84;5055370;28;20209;-70
2022/07/12 02:37:08;;;;;;;2.93;2.63;;;;;;;16.06;85.40;98745.94;5055269;28;20300;-70
2022/07/12 02:39:35;;;;;;;3.07;2.87;;;;;;;15.95;86.05;98736.06;5055151;28;20312;-69
2022/07/12 02:42:01;;;;;;;4.17;3.03;;;;;;;15.82;87.05;98744.34;5054703;28;20316;-69
2022/07/12 02:44:28;;;;;;;3.00;2.80;;;;;;;15.85;86.96;98746.56;5055041;28;20291;-69
2022/07/12 02:46:54;;;;;;;2.97;2.70;;;;;;;15.93;86.68;98740.81;5055029;28;20309;-70
2022/07/12 02:49:20;;;;;;;3.80;2.93;;;;;;;15.82;87.47;98740.84;5054569;28;20225;-69
2022/07/12 02:51:47;;;;;;;3.27;3.07;;;;;;;15.77;87.77;98744.25;5054958;28;20296;-69
2022/07/12 02:54:13;;;;;;;3.13;2.90;;;;;;;15.77;87.99;98743.41;5054917;28;20209;-69
2022/07/12 02:56:39;;;;;;;3.23;3.03;;;;;;;15.76;88.20;98747.16;5054521;28;20665;-69
2022/07/12 02:59:06;;;;;;;3.40;3.10;;;;;;;15.84;87.73;98752.97;5054675;28;20225;-69
2022/07/12 03:01:32;;;;;;;3.60;3.23;;;;;;;15.87;87.47;98743.66;5054602;28;20221;-69
2022/07/12 03:03:59;;;;;;;2.80;2.60;;;;;;;15.81;87.37;98744.59;5054529;28;20292;-69
2022/07/12 03:06:25;;;;;;;3.40;3.10;;;;;;;15.76;87.90;98747.16;5054632;28;20288;-70
2022/07/12 03:08:52;;;;;;;4.90;3.00;;;;;;;15.65;88.33;98748.78;5054308;28;20784;-69
2022/07/12 03:11:18;;;;;;;3.30;3.00;;;;;;;15.57;89.07;98751.03;5054190;28;20219;-69
2022/07/12 03:13:44;;;;;;;4.47;2.97;;;;;;;15.64;88.28;98755.22;5054156;28;20672;-69
2022/07/12 03:16:11;;;;;;;3.00;2.80;;;;;;;15.55;89.23;98751.25;5054402;28;20205;-69
2022/07/12 03:18:40;;;;;;;3.00;2.80;;;;;;;15.44;89.46;98754.75;5053936;28;20237;-69
2022/07/12 03:21:06;;;;;;;3.20;2.97;;;;;;;15.44;90.18;98762.81;5054113;28;20288;-69
2022/07/12 03:23:33;;;;;;;4.60;2.70;;;;;;;15.38;90.02;98758.34;5054598;28;20205;-69
2022/07/12 03:25:59;;;;;;;3.30;3.10;;;;;;;15.38;90.59;98761.03;5054157;28;20296;-70
2022/07/12 03:28:26;;;;;;;3.90;3.50;;;;;;;15.45;90.56;98763.59;5054151;28;20236;-70
2022/07/12 03:30:52;;;;;;;5.37;3.30;;;;;;;15.45;90.35;98761.75;5054054;28;20232;-69
2022/07/12 03:33:18;;;;;;;7.63;4.20;;;;;;;15.45;90.55;98764.44;5053898;28;20296;-69
2022/07/12 03:35:45;;;;;;;4.30;3.90;;;;;;;15.49;90.43;98768.28;5053489;28;20205;-69
2022/07/12 03:38:12;;;;;;;3.83;3.30;;;;;;;15.57;89.06;98773.28;5053723;28;20305;-69
2022/07/12 03:40:38;;;;;;;5.10;4.43;;;;;;;15.65;89.04;98775.59;5053800;28;20216;-70
2022/07/12 03:43:05;;;;;;;4.30;3.90;;;;;;;15.68;88.59;98785.03;5053239;28;20336;-69
2022/07/12 03:45:31;;;;;;;4.00;3.60;;;;;;;15.61;89.04;98781.69;5053262;28;20202;-69
2022/07/12 03:47:57;;;;;;;3.70;3.40;;;;;;;15.64;89.10;98787.38;5053446;28;20209;-70
2022/07/12 03:50:24;;;;;;;3.40;3.10;;;;;;;15.67;88.73;98791.47;5053746;28;20213;-69
2022/07/12 03:52:50;;;;;;;5.27;3.20;;;;;;;15.58;89.24;98788.31;5053429;28;20201;-69
2022/07/12 03:55:17;;;;;;;3.27;2.97;;;;;;;15.58;89.41;98788.31;5053605;28;20576;-69
2022/07/12 03:57:43;;;;;;;2.90;2.70;;;;;;;15.66;88.56;98801.38;5053607;28;20231;-69
2022/07/12 04:00:11;;;;;;;3.30;3.00;;;;;;;15.61;88.58;98801.25;5052786;28;20312;-69
2022/07/12 04:02:39;;;;;;;2.90;2.70;;;;;;;15.63;88.22;98801.84;5053079;28;20717;-69
2022/07/12 04:05:07;;;;;;;3.33;2.97;;;;;;;15.68;88.27;98795.75;5053499;28;20267;-69
2022/07/12 04:07:33;;;;;;;3.33;3.13;;;;;;;15.72;88.18;98808.47;5053453;28;20209;-69
2022/07/12 04:09:59;;;;;;;3.70;3.40;;;;;;;15.79;87.34;98811.06;5053075;28;20229;-69
2022/07/12 04:12:26;;;;;;;4.07;3.47;;;;;;;15.80;86.94;98808.13;5053462;28;20281;-69
2022/07/12 04:14:52;;;;;;;3.67;3.37;;;;;;;15.87;86.93;98819.53;5053043;28;20691;-69
2022/07/12 04:17:19;;;;;;;4.83;3.30;;;;;;;15.86;86.96;98814.41;5053246;28;20296;-69
2022/07/12 04:19:45;;;;;;;3.80;3.00;;;;;;;15.89;87.74;98811.28;5052801;28;20279;-69
2022/07/12 04:22:11;;;;;;;3.93;3.20;;;;;;;15.95;86.95;98808.47;5053127;28;20217;-69
2022/07/12 04:24:38;;;;;;;3.20;2.90;;;;;;;15.94;86.79;98801.47;5052744;28;20640;-70
2022/07/12 04:27:04;;;;;;;3.70;3.40;;;;;;;15.94;86.64;98806.00;5053896;28;20225;-70
2022/07/12 04:29:31;;;;;;;3.87;3.07;;;;;;;16.02;86.44;98803.78;5053107;28;20243;-70
2022/07/12 04:31:57;;;;;;;4.13;3.33;;;;;;;16.02;85.80;98803.78;5053175;28;20239;-70
2022/07/12 04:34:24;;;;;;;3.47;3.10;;;;;;;15.99;85.64;98800.75;5052719;28;20205;-70
2022/07/12 04:36:50;;;;;;;3.40;3.10;;;;;;;15.99;85.60;98811.50;5052921;28;20301;-70
2022/07/12 04:39:16;;;;;;;3.53;3.30;;;;;;;16.01;85.38;98810.19;5052635;28;20225;-70
2022/07/12 04:41:43;;;;;;;3.33;3.13;;;;;;;16.04;86.15;98812.44;5052908;28;20215;-70
2022/07/12 04:44:09;;;;;;;3.70;3.40;;;;;;;16.03;85.51;98813.47;5052682;28;20597;-70
2022/07/12 04:46:36;;;;;;;3.60;3.30;;;;;;;15.97;85.29;98817.09;5052626;28;20239;-70
2022/07/12 04:49:02;;;;;;;3.20;3.00;;;;;;;15.92;85.58;98808.13;5052243;28;20652;-70
2022/07/12 04:51:29;;;;;;;3.87;3.57;;;;;;;15.86;86.20;98807.19;5052670;28;20295;-70
2022/07/12 04:53:55;;;;;;;4.33;3.37;;;;;;;15.93;85.74;98799.03;5052782;28;20213;-70
2022/07/12 04:56:22;;;;;;;3.80;3.40;;;;;;;16.01;85.36;98806.72;5052265;28;20630;-70
2022/07/12 04:58:49;;;;;;;3.80;3.50;;;;;;;16.01;85.67;98801.34;5052160;28;20292;-70
2022/07/12 05:01:16;;;;;;;3.90;3.60;;;;;;;16.02;86.01;98802.97;5052529;28;20301;-70
2022/07/12 05:03:43;;;;;;;5.00;3.70;;;;;;;16.16;85.36;98807.88;5052031;28;20221;-70
2022/07/12 05:06:09;;;;;;;4.30;3.20;;;;;;;16.28;85.16;98807.84;5052219;28;20299;-70
2022/07/12 05:08:36;;;;;;;3.47;3.20;;;;;;;16.32;85.91;98817.84;5052212;28;20335;-69
2022/07/12 05:11:02;;;;;;;3.60;3.20;;;;;;;16.35;85.43;98819.25;5051917;28;20219;-70
2022/07/12 05:13:28;;;;;;;3.47;3.17;;;;;;;16.75;83.77;98812.88;5052023;28;20668;-70
2022/07/12 05:15:55;;;;;;;4.63;2.80;;;;;;;17.20;81.81;98819.03;5051757;28;20205;-70
2022/07/12 05:18:21;;;;;;;2.93;2.73;;;;;;;17.28;80.08;98821.31;5052259;28;20315;-70
2022/07/12 05:20:48;;;;;;;4.13;2.67;;;;;;;17.50;79.42;98821.47;5052203;28;20296;-70
2022/07/12 05:23:14;;;;;;;3.10;2.60;;;;;;;17.59;77.81;98828.88;5051999;28;20703;-70
2022/07/12 05:25:41;;;;;;;3.07;2.77;;;;;;;18.62;73.36;98819.03;5051675;28;20297;-70
2022/07/12 05:28:07;;;;;;;3.30;2.97;;;;;;;20.45;66.07;98818.44;5051725;28;20651;-70
2022/07/12 05:30:33;;;;;;;4.43;2.73;;;;;;;20.19;65.79;98824.78;5052195;28;20206;-70
2022/07/12 05:33:00;;;;;;;5.10;2.53;;;;;;;19.09;69.20;98820.09;5055491;28;20308;-70
2022/07/12 05:35:26;;;;;;;3.13;2.83;;;;;;;19.35;69.32;98824.69;5055600;28;20205;-70
2022/07/12 05:37:53;;;;;;;3.10;2.40;;;;;;;18.91;71.78;98828.53;5055181;28;20296;-70
2022/07/12 05:40:19;;;;;;;3.07;2.40;;;;;;;18.88;72.52;98828.22;5055658;28;20295;-70
2022/07/12 05:42:46;;;;;;;2.70;2.50;;;;;;;18.84;72.18;98830.63;5055833;28;20232;-70
2022/07/12 05:45:12;;;;;;;3.60;2.90;;;;;;;18.53;72.42;98825.94;5055925;28;20236;-70
2022/07/12 05:47:39;;;;;;;2.73;2.53;;;;;;;18.70;71.97;98832.06;5055384;28;20293;-70
2022/07/12 05:50:06;;;;;;;3.07;2.57;;;;;;;18.69;72.18;98837.72;5055971;28;20328;-71
2022/07/12 05:55:16;;;;;;;4.40;3.20;;;;;;;18.02;75.34;98838.94;5055449;28;20226;-70
2022/07/12 05:57:42;;;;;;;6.30;3.37;;;;;;;18.20;75.91;98850.25;5055715;28;20292;-70
2022/07/12 06:00:10;;;;;;;4.13;3.67;;;;;;;18.29;75.31;98846.06;5055099;28;20233;-70
2022/07/12 06:02:36;;;;;;;3.83;3.53;;;;;;;18.37;74.55;98848.34;5055882;28;20304;-70
2022/07/12 06:05:02;;;;;;;3.23;2.93;;;;;;;18.72;74.55;98845.28;5056011;28;20292;-70
2022/07/12 06:07:29;;;;;;;3.57;3.27;;;;;;;18.62;73.30;98848.69;5055324;28;20201;-69
2022/07/12 06:09:55;;;;;;;3.40;3.10;;;;;;;18.57;73.56;98853.19;5055083;28;20336;-70
2022/07/12 06:12:22;;;;;;;3.40;3.10;;;;;;;18.82;73.71;98856.97;5054780;28;20185;-70
2022/07/12 06:14:48;;;;;;;3.30;3.00;;;;;;;18.89;71.85;98852.22;5055244;28;20740;-70
2022/07/12 06:17:15;;;;;;;4.10;2.90;;;;;;;18.82;72.79;98854.28;5054768;28;20209;-70
2022/07/12 06:19:41;;;;;;;3.33;3.00;;;;;;;18.98;71.98;98861.50;5055465;28;20312;-70
2022/07/12 06:22:07;;;;;;;2.77;1.90;;;;;;;18.95;69.60;98863.88;5055027;28;20292;-69
2022/07/12 06:24:34;;;;;;;1.70;1.60;;;;;;;19.05;68.40;98864.78;5054654;28;20673;-70
2022/07/12 06:27:00;;;;;;;1.00;0.90;;;;;;;18.92;65.77;98865.19;5054696;28;20566;-70
2022/07/12 06:29:27;;;;;;;3.97;1.30;;;;;;;18.92;65.56;98862.47;5054568;28;20233;-70
2022/07/12 06:31:53;;;;;;;1.30;1.20;;;;;;;18.83;66.81;98863.19;5054248;28;20213;-70
2022/07/12 06:34:19;;;;;;;1.53;1.20;;;;;;;18.96;67.36;98866.31;5054613;28;20291;-70
2022/07/12 06:36:46;;;;;;;1.40;1.30;;;;;;;19.21;66.39;98865.75;5054512;28;20395;-69
2022/07/12 06:39:12;;;;;;;1.10;1.10;;;;;;;19.42;62.79;98875.72;5054209;28;20656;-70
2022/07/12 06:41:39;;;;;;;2.23;1.37;;;;;;;19.15;64.41;98873.00;5054163;28;20268;-73
2022/07/12 06:44:05;;;;;;;1.10;1.00;;;;;;;19.25;63.62;98869.59;5055088;28;20228;-73
2022/07/12 06:46:31;;;;;;;1.77;1.67;;;;;;;19.18;64.68;98872.47;5054467;28;20665;-73
2022/07/12 06:48:58;;;;;;;3.50;2.13;;;;;;;19.27;64.23;98879.06;5055119;28;20311;-73
2022/07/12 06:51:24;;;;;;;1.83;1.73;;;;;;;19.21;64.45;98877.38;5054771;28;20628;-73
2022/07/12 06:53:51;;;;;;;2.97;1.30;;;;;;;19.19;64.68;98867.91;5055371;28;20229;-73
2022/07/12 06:56:17;;;;;;;2.43;1.17;;;;;;;19.18;64.30;98875.16;5054876;28;20213;-73
2022/07/12 06:58:44;;;;;;;4.53;2.13;;;;;;;19.43;63.41;98883.56;5053939;28;20794;-73
2022/07/12 07:01:10;;;;;;;2.27;1.47;;;;;;;19.65;61.99;98880.78;5054156;28;20227;-73
2022/07/12 07:03:37;;;;;;;1.57;1.47;;;;;;;19.35;62.44;98875.91;5054123;28;20221;-73
2022/07/12 07:06:03;;;;;;;3.00;1.50;;;;;;;19.33;62.53;98879.94;5054572;28;20292;-73
2022/07/12 07:08:31;;;;;;;3.20;2.80;;;;;;;19.51;62.45;98880.38;5054726;28;20232;-74
2022/07/12 07:10:57;;;;;;;3.57;2.10;;;;;;;19.51;62.60;98891.16;5054367;28;20295;-74
2022/07/12 07:13:24;;;;;;;2.90;1.80;;;;;;;19.59;64.28;98890.69;5054023;28;20274;-74
2022/07/12 07:15:50;;;;;;;4.30;2.90;;;;;;;19.73;63.40;98895.69;5054472;28;20205;-74
2022/07/12 07:18:16;;;;;;;1.40;1.30;;;;;;;20.07;63.17;98897.03;5054486;28;20320;-74
2022/07/12 07:20:43;;;;;;;1.40;1.30;;;;;;;20.28;61.79;98888.00;5055246;28;20205;-74
2022/07/12 07:23:10;;;;;;;1.27;1.03;;;;;;;20.51;59.00;98891.13;5056720;28;20270;-73
2022/07/12 07:25:36;;;;;;;1.03;0.93;;;;;;;19.73;57.61;98891.91;5055909;28;20213;-73
2022/07/12 07:28:03;;;;;;;1.90;1.30;;;;;;;19.94;60.62;98900.19;5055888;28;20636;-73
2022/07/12 07:33:13;;;;;;;2.77;1.00;;;;;;;20.31;60.14;98903.72;5056950;28;20172;-73
2022/07/12 07:35:39;;;;;;;0.83;0.83;;;;;;;20.50;58.76;98900.31;5056223;28;20194;-73
2022/07/12 07:38:06;;;;;;;1.23;0.90;;;;;;;20.66;57.89;98893.09;5056478;28;20292;-73
2022/07/12 07:40:32;;;;;;;1.50;0.80;;;;;;;20.52;57.33;98900.84;5055514;28;20268;-72
2022/07/12 07:42:59;;;;;;;0.60;0.60;;;;;;;20.48;56.44;98898.94;5055029;28;20320;-72
2022/07/12 07:45:25;;;;;;;1.37;0.67;;;;;;;20.93;57.23;98902.69;5054809;28;20211;-72
2022/07/12 07:47:51;;;;;;;0.93;0.90;;;;;;;20.98;55.66;98904.63;5054752;28;20215;-72
2022/07/12 07:50:18;;;;;;;1.60;1.50;;;;;;;21.23;54.91;98901.97;5055787;28;20315;-71
2022/07/12 07:52:45;;;;;;;0.77;0.77;;;;;;;21.31;54.37;98907.69;5054803;28;20204;-72
2022/07/12 07:55:12;;;;;;;3.00;0.80;;;;;;;21.47;53.96;98909.34;5053716;28;20656;-72
2022/07/12 07:57:38;;;;;;;1.10;0.90;;;;;;;21.15;54.77;98910.59;5054276;28;20228;-72
2022/07/12 08:00:05;;;;;;;2.00;0.80;;;;;;;21.28;55.83;98907.41;5054806;28;20312;-73
2022/07/12 08:02:31;;;;;;;1.27;1.20;;;;;;;20.77;54.49;98919.09;5055315;28;20670;-72
2022/07/12 08:04:58;;;;;;;0.87;0.70;;;;;;;21.23;55.15;98904.69;5055336;28;20299;-72
2022/07/12 08:07:24;;;;;;;1.00;0.60;;;;;;;21.34;52.88;98898.25;5054809;28;20292;-72
2022/07/12 08:09:51;;;;;;;1.57;0.70;;;;;;;20.93;54.12;98893.78;5054945;28;20318;-72
2022/07/12 08:12:17;;;;;;;0.73;0.73;;;;;;;21.00;53.57;98897.88;5054823;28;20199;-72
2022/07/12 08:14:45;;;;;;;1.70;1.47;;;;;;;21.03;54.30;98901.94;5054609;28;20201;-72
2022/07/12 08:17:11;;;;;;;1.60;0.63;;;;;;;21.18;54.27;98899.25;5054613;28;20295;-72
2022/07/12 08:19:37;;;;;;;0.83;0.83;;;;;;;21.18;54.52;98891.97;5054329;28;20311;-72
2022/07/12 08:22:04;;;;;;;0.80;0.80;;;;;;;21.38;54.44;98894.72;5053828;28;20648;-73
2022/07/12 08:24:31;;;;;;;0.97;0.70;;;;;;;21.64;55.04;98893.69;5054205;28;20228;-72
2022/07/12 08:26:57;;;;;;;0.77;0.70;;;;;;;21.58;52.59;98900.19;5054769;28;20240;-73
2022/07/12 08:29:23;;;;;;;0.70;0.70;;;;;;;21.67;53.17;98903.16;5055172;28;20228;-74
2022/07/12 08:31:50;;;;;;;0.70;0.70;;;;;;;21.36;51.80;98890.66;5055712;28;20292;-74
2022/07/12 08:34:16;;;;;;;0.90;0.70;;;;;;;21.36;53.79;98885.25;5056156;28;20235;-74
2022/07/12 08:36:43;;;;;;;1.17;0.90;;;;;;;21.58;52.70;98893.94;5055715;28;20295;-74
2022/07/12 08:39:09;;;;;;;3.00;0.80;;;;;;;21.51;53.34;98888.78;5056446;28;20648;-74
2022/07/12 08:41:35;;;;;;;3.27;0.80;;;;;;;21.69;52.97;98890.16;5054884;28;20304;-72
2022/07/12 08:44:02;;;;;;;4.80;0.77;;;;;;;21.55;52.46;98891.75;5055030;28;20316;-73
2022/07/12 08:46:28;;;;;;;1.13;0.70;;;;;;;21.86;52.54;98898.84;5054019;28;20209;-73
2022/07/12 08:48:55;;;;;;;1.40;0.70;;;;;;;22.19;51.52;98904.53;5054215;28;20312;-73
2022/07/12 08:51:22;;;;;;;1.20;0.80;;;;;;;22.17;50.48;98906.69;5055265;28;20300;-73
2022/07/12 08:54:05;;;;;;;1.10;0.90;;;;;;;22.18;50.96;98899.38;5055349;28;20288;-74
2022/07/12 08:56:33;;;;;;;0.80;0.80;;;;;;;22.25;51.67;98905.34;5055638;28;20276;-74
2022/07/12 08:59:11;;;;;;;0.60;0.60;;;;;;;22.51;51.25;98909.63;5055537;28;20231;-73
2022/07/12 09:01:47;;;;;;;0.80;0.80;;;;;;;22.35;50.09;98916.16;5055026;28;20247;-74
2022/07/12 09:04:27;;;;;;;1.40;0.80;;;;;;;21.13;52.40;98912.78;5056817;28;20656;-74
2022/07/12 09:06:54;;;;;;;1.10;1.00;;;;;;;21.12;52.42;98917.34;5058656;28;20205;-74
2022/07/12 09:09:35;;;;;;;0.90;0.90;;;;;;;21.71;52.21;98912.38;5058799;28;20316;-73
2022/07/12 09:12:02;;;;;;;1.00;0.90;;;;;;;21.79;51.02;98912.66;5058671;28;20267;-73
2022/07/12 09:14:28;;;;;;;2.73;1.00;;;;;;;21.70;50.46;98916.19;5058684;28;20201;-74
2022/07/12 09:17:09;;;;;;;2.13;1.93;;;;;;;21.70;50.72;98911.56;5059390;28;20587;-74
2022/07/12 09:19:37;;;;;;;3.77;2.43;;;;;;;22.33;48.50;98905.56;5059720;28;20221;-74
2022/07/12 09:22:05;;;;;;;2.87;1.30;;;;;;;22.49;47.84;98909.09;5057733;28;20243;-71
2022/07/12 09:24:31;;;;;;;1.57;1.40;;;;;;;22.51;46.92;98909.63;5057083;28;20229;-71
2022/07/12 09:27:02;;;;;;;5.03;1.40;;;;;;;22.09;47.60;98917.25;5056862;28;20571;-71
2022/07/12 09:29:28;;;;;;;0.77;0.70;;;;;;;22.54;48.11;98909.09;5057105;28;20253;-73
2022/07/12 09:37:25;;;;;;;2.13;0.90;;;;;;;22.20;49.17;98905.34;5059823;28;20196;-73
2022/07/12 09:39:55;;;;;;;1.67;0.73;;;;;;;22.29;49.15;98911.84;5059140;28;20340;-73
2022/07/12 09:42:22;;;;;;;1.13;0.70;;;;;;;22.21;48.90;98906.97;5059741;28;20292;-73
2022/07/12 09:44:51;;;;;;;0.87;0.70;;;;;;;22.13;49.72;98910.22;5059666;28;20229;-73
2022/07/12 09:47:17;;;;;;;1.00;1.00;;;;;;;22.17;50.38;98906.69;5059882;28;20255;-74
2022/07/12 09:49:45;;;;;;;1.10;0.80;;;;;;;22.67;49.49;98903.09;5058762;28;20308;-73
2022/07/12 09:52:16;;;;;;;1.13;0.77;;;;;;;23.05;48.87;98903.22;5058351;28;20204;-74
2022/07/12 09:54:43;;;;;;;2.38;0.70;;;;;;;23.02;47.62;98909.19;5057728;28;20277;-73
2022/07/12 09:57:27;;;;;;;0.70;0.70;;;;;;;23.27;47.27;98902.84;5058192;28;20206;-75
2022/07/12 09:59:55;;;;;;;1.45;0.70;;;;;;;23.61;46.41;98907.25;5058609;28;20795;-72
2022/07/12 10:02:23;;;;;;;0.60;0.60;;;;;;;23.46;45.31;98904.63;5056329;28;20201;-73
2022/07/12 10:04:51;;;;;;;0.50;0.50;;;;;;;23.28;45.95;98908.00;5058310;28;20267;-73
2022/07/12 10:07:17;;;;;;;0.73;0.70;;;;;;;23.35;45.77;98902.25;5057766;28;20296;-73
2022/07/12 10:09:46;;;;;;;1.20;0.50;;;;;;;23.50;45.70;98907.59;5057223;28;20316;-73
2022/07/12 10:12:16;;;;;;;0.68;0.60;;;;;;;23.68;45.47;98909.63;5057355;28;20626;-74
2022/07/12 10:14:45;;;;;;;0.60;0.60;;;;;;;23.83;45.14;98913.06;5057331;28;20201;-71
2022/07/12 10:17:12;;;;;;;0.60;0.60;;;;;;;24.13;44.73;98912.84;5055147;28;20570;-71
2022/07/12 10:19:39;;;;;;;0.70;0.68;;;;;;;24.13;45.78;98912.03;5055101;28;20229;-71
2022/07/12 10:22:08;;;;;;;2.38;2.20;;;;;;;24.41;44.77;98913.91;5055703;28;20213;-72
2022/07/12 10:24:34;;;;;;;1.00;1.00;;;;;;;24.06;45.16;98911.56;5055431;28;20228;-71
2022/07/12 10:27:22;;;;;;;0.95;0.80;;;;;;;24.61;44.40;98914.53;5055251;28;20575;-71
2022/07/12 10:29:51;;;;;;;0.60;0.60;;;;;;;24.39;45.05;98916.13;5055660;28;20233;-71
2022/07/12 10:32:36;;;;;;;1.30;0.60;;;;;;;24.10;43.69;98913.41;5055223;28;20217;-71
2022/07/12 10:35:08;;;;;;;0.70;0.70;;;;;;;23.88;45.43;98910.28;5054344;28;20276;-71
2022/07/12 10:37:35;;;;;;;0.80;0.80;;;;;;;24.27;44.42;98905.63;5055746;28;20288;-71
2022/07/12 10:40:11;;;;;;;0.60;0.60;;;;;;;23.91;43.88;98903.50;5054876;28;20217;-71
2022/07/12 10:42:38;;;;;;;0.90;0.90;;;;;;;23.25;44.56;98902.31;5055841;28;20264;-72
2022/07/12 10:45:13;;;;;;;0.65;0.65;;;;;;;23.04;44.60;98903.47;5055665;28;20217;-71
2022/07/12 10:48:14;;;;;;;0.73;0.73;;;;;;;23.47;44.13;98892.69;5055565;28;20205;-71
2022/07/12 10:50:44;;;;;;;1.65;0.70;;;;;;;23.59;46.49;98892.31;5035934;28;20262;-71
2022/07/12 10:53:20;;;;;;;1.02;0.75;;;;;;;24.06;45.11;98889.81;5055383;28;20610;-71
2022/07/12 10:56:14;;;;;;;0.70;0.70;;;;;;;24.31;44.25;98884.13;5054741;28;20219;-71
2022/07/12 10:58:48;;;;;;;0.60;0.60;;;;;;;24.49;42.97;98886.09;5052210;28;20233;-71
2022/07/12 11:01:25;;;;;;;1.75;0.80;;;;;;;24.00;44.37;98882.78;5054470;28;20195;-70
2022/07/12 11:04:05;;;;;;;0.70;0.70;;;;;;;24.67;43.73;98885.41;5054061;28;20311;-70
2022/07/12 11:06:35;;;;;;;1.10;0.65;;;;;;;24.48;42.94;98881.78;5054399;28;20280;-71
2022/07/12 11:09:13;;;;;;;0.68;0.68;;;;;;;24.43;43.52;98881.84;5054576;28;20232;-71
2022/07/12 11:11:44;;;;;;;1.88;0.90;;;;;;;24.76;43.22;98880.94;5054034;28;20311;-70
2022/07/12 11:14:12;;;;;;;0.95;0.70;;;;;;;24.68;42.89;98889.72;5053885;28;20205;-71
2022/07/12 11:16:47;;;;;;;0.80;0.80;;;;;;;24.37;43.59;98888.44;5054433;28;20209;-71
2022/07/12 11:19:14;;;;;;;0.60;0.60;;;;;;;24.14;43.73;98894.63;5054329;28;20225;-71
2022/07/12 11:21:44;;;;;;;1.10;0.70;;;;;;;24.19;43.31;98889.94;5054428;28;20292;-71
2022/07/12 11:24:19;;;;;;;0.55;0.47;;;;;;;24.34;43.48;98891.72;5053727;28;20205;-71
2022/07/12 11:26:45;;;;;;;0.65;0.65;;;;;;;24.35;42.13;98885.19;5053796;28;20247;-71
2022/07/12 11:29:12;;;;;;;1.25;0.60;;;;;;;24.60;42.93;98883.03;5052904;28;20312;-71
2022/07/12 11:31:39;;;;;;;0.57;0.57;;;;;;;24.45;42.03;98880.44;5053167;28;20692;-71
2022/07/12 11:34:05;;;;;;;0.68;0.65;;;;;;;24.50;42.36;98876.84;5053707;28;20201;-71
2022/07/12 11:36:33;;;;;;;1.25;0.70;;;;;;;25.00;42.11;98877.09;5053682;28;20201;-70
2022/07/12 11:39:00;;;;;;;0.68;0.68;;;;;;;24.68;40.91;98873.41;5053480;28;20707;-71
2022/07/12 11:41:27;;;;;;;0.60;0.60;;;;;;;24.78;41.29;98867.88;5053166;28;20668;-71
2022/07/12 11:43:53;;;;;;;0.50;0.50;;;;;;;24.87;41.07;98879.72;5053460;28;20217;-71
2022/07/12 11:46:20;;;;;;;0.60;0.60;;;;;;;24.61;41.18;98875.69;5053442;28;20300;-71